createdAt,value
2018-12-19T00:00:30.215Z,17.00
2018-12-19T00:01:30.145Z,18.40
2018-12-19T00:02:30.068Z,17.40
2018-12-19T00:03:30.000Z,17.80
2018-12-19T00:04:29.939Z,17.40
2018-12-19T00:05:29.869Z,17.90
2018-12-19T00:06:29.793Z,17.90
2018-12-19T00:07:29.728Z,17.40
2018-12-19T00:08:29.658Z,17.70
2018-12-19T00:09:29.602Z,18.50
2018-12-19T00:10:29.516Z,17.20
2018-12-19T00:11:29.453Z,17.50
2018-12-19T00:12:29.384Z,17.50
2018-12-19T00:13:29.324Z,17.40
2018-12-19T00:14:29.255Z,18.10
2018-12-19T00:15:29.179Z,17.50
2018-12-19T00:16:29.107Z,17.80
2018-12-19T00:17:29.042Z,17.70
2018-12-19T00:18:28.976Z,18.00
2018-12-19T00:19:28.909Z,18.10
2018-12-19T00:20:28.842Z,17.60
2018-12-19T00:21:28.768Z,18.00
2018-12-19T00:22:28.699Z,17.60
2018-12-19T00:23:28.631Z,17.60
2018-12-19T00:24:28.577Z,18.50
2018-12-19T00:25:28.490Z,17.40
2018-12-19T00:26:28.423Z,17.80
2018-12-19T00:27:28.356Z,16.60
2018-12-19T00:28:28.295Z,18.00
2018-12-19T00:29:28.217Z,18.20
2018-12-19T00:30:28.151Z,17.90
2018-12-19T00:31:28.080Z,16.80
2018-12-19T00:32:28.013Z,17.60
2018-12-19T00:33:27.951Z,17.50
2018-12-19T00:34:27.875Z,18.20
2018-12-19T00:35:27.823Z,18.10
2018-12-19T00:36:27.740Z,18.90
2018-12-19T00:37:27.671Z,18.30
2018-12-19T00:38:27.606Z,17.90
2018-12-19T00:39:27.538Z,18.40
2018-12-19T00:40:27.463Z,18.10
2018-12-19T00:41:27.394Z,18.70
2018-12-19T00:42:27.326Z,17.80
2018-12-19T00:43:27.256Z,18.20
2018-12-19T00:44:27.187Z,17.60
2018-12-19T00:45:27.118Z,18.20
2018-12-19T00:46:27.084Z,17.90
2018-12-19T00:47:26.987Z,17.80
2018-12-19T00:48:26.910Z,17.40
2018-12-19T00:49:26.846Z,18.90
2018-12-19T00:50:26.779Z,18.80
2018-12-19T00:51:26.709Z,18.60
2018-12-19T00:52:26.647Z,18.60
2018-12-19T00:53:26.570Z,17.70
2018-12-19T00:54:26.501Z,18.20
2018-12-19T00:55:26.432Z,18.10
2018-12-19T00:56:26.369Z,18.90
2018-12-19T00:57:26.339Z,18.00
2018-12-19T00:58:26.241Z,19.00
2018-12-19T00:59:26.154Z,18.90
2018-12-19T01:00:26.087Z,18.80
2018-12-19T01:01:26.022Z,18.10
2018-12-19T01:02:25.958Z,19.40
2018-12-19T01:03:25.882Z,18.90
2018-12-19T01:04:25.815Z,18.10
2018-12-19T01:05:25.745Z,18.30
2018-12-19T01:06:25.677Z,18.40
2018-12-19T01:07:25.606Z,18.30
2018-12-19T01:08:25.543Z,17.80
2018-12-19T01:09:25.471Z,18.20
2018-12-19T01:10:25.401Z,18.00
2018-12-19T01:11:25.331Z,18.00
2018-12-19T01:12:25.265Z,18.80
2018-12-19T01:13:25.197Z,17.70
2018-12-19T01:14:25.127Z,17.90
2018-12-19T01:15:25.065Z,17.70
2018-12-19T01:16:24.999Z,18.70
2018-12-19T01:17:24.940Z,18.10
2018-12-19T01:18:24.852Z,18.00
2018-12-19T01:19:24.789Z,18.40
2018-12-19T01:20:24.719Z,18.40
2018-12-19T01:21:24.658Z,18.70
2018-12-19T01:22:24.578Z,18.40
2018-12-19T01:23:24.511Z,18.40
2018-12-19T01:24:24.443Z,18.50
2018-12-19T01:25:24.374Z,18.20
2018-12-19T01:26:24.301Z,19.00
2018-12-19T01:27:24.235Z,17.30
2018-12-19T01:28:24.169Z,18.40
2018-12-19T01:29:24.097Z,19.10
2018-12-19T01:30:24.029Z,18.70
2018-12-19T01:31:23.961Z,18.20
2018-12-19T01:32:23.895Z,18.70
2018-12-19T01:33:23.826Z,18.40
2018-12-19T01:34:23.763Z,18.30
2018-12-19T01:35:23.695Z,17.60
2018-12-19T01:36:23.628Z,18.20
2018-12-19T01:37:23.551Z,18.40
2018-12-19T01:38:23.482Z,18.30
2018-12-19T01:39:23.414Z,17.20
2018-12-19T01:40:23.351Z,17.40
2018-12-19T01:41:23.277Z,17.40
2018-12-19T01:42:23.207Z,17.20
2018-12-19T01:43:23.139Z,18.10
2018-12-19T01:44:23.083Z,17.80
2018-12-19T01:45:22.998Z,17.00
2018-12-19T01:46:22.932Z,17.30
2018-12-19T01:47:22.862Z,18.20
2018-12-19T01:48:22.799Z,17.90
2018-12-19T01:49:22.724Z,18.30
2018-12-19T01:50:22.660Z,18.10
2018-12-19T01:51:22.592Z,17.30
2018-12-19T01:52:22.521Z,17.50
2018-12-19T01:53:22.463Z,17.30
2018-12-19T01:54:22.393Z,18.20
2018-12-19T01:55:22.333Z,16.90
2018-12-19T01:56:22.248Z,17.50
2018-12-19T01:57:22.177Z,18.30
2018-12-19T01:58:22.112Z,17.10
2018-12-19T01:59:22.047Z,17.70
2018-12-19T02:00:21.971Z,16.60
2018-12-19T02:01:21.906Z,17.50
2018-12-19T02:02:21.839Z,18.60
2018-12-19T02:03:21.769Z,18.10
2018-12-19T02:04:21.695Z,17.80
2018-12-19T02:05:21.630Z,18.10
2018-12-19T02:06:21.562Z,17.20
2018-12-19T02:07:21.498Z,18.10
2018-12-19T02:08:21.433Z,19.00
2018-12-19T02:09:21.357Z,19.40
2018-12-19T02:10:21.289Z,18.70
2018-12-19T02:11:21.222Z,19.00
2018-12-19T02:12:21.154Z,19.40
2018-12-19T02:13:21.091Z,19.20
2018-12-19T02:14:21.021Z,18.90
2018-12-19T02:15:20.949Z,17.90
2018-12-19T02:16:20.882Z,17.80
2018-12-19T02:17:20.809Z,18.40
2018-12-19T02:18:20.752Z,19.60
2018-12-19T02:19:20.669Z,17.80
2018-12-19T02:20:20.605Z,18.60
2018-12-19T02:21:20.537Z,18.50
2018-12-19T02:22:20.473Z,18.40
2018-12-19T02:23:20.400Z,18.50
2018-12-19T02:24:20.334Z,18.60
2018-12-19T02:25:20.263Z,19.00
2018-12-19T02:26:20.192Z,19.20
2018-12-19T02:27:20.133Z,19.00
2018-12-19T02:28:20.068Z,19.00
2018-12-19T02:29:19.985Z,18.50
2018-12-19T02:30:19.921Z,18.40
2018-12-19T02:31:19.852Z,18.60
2018-12-19T02:32:19.783Z,18.80
2018-12-19T02:33:19.717Z,18.60
2018-12-19T02:34:19.646Z,17.50
2018-12-19T02:35:19.578Z,18.20
2018-12-19T02:36:19.510Z,20.00
2018-12-19T02:37:19.448Z,20.20
2018-12-19T02:38:19.367Z,19.30
2018-12-19T02:39:19.304Z,18.90
2018-12-19T02:40:19.234Z,19.90
2018-12-19T02:41:19.165Z,18.60
2018-12-19T02:42:19.096Z,19.40
2018-12-19T02:43:19.030Z,19.80
2018-12-19T02:44:18.962Z,19.20
2018-12-19T02:45:18.889Z,19.70
2018-12-19T02:46:18.826Z,20.30
2018-12-19T02:47:18.763Z,19.20
2018-12-19T02:48:18.711Z,19.40
2018-12-19T02:49:18.615Z,19.30
2018-12-19T02:50:18.549Z,19.50
2018-12-19T02:51:18.480Z,18.90
2018-12-19T02:52:18.415Z,18.90
2018-12-19T02:53:18.340Z,19.40
2018-12-19T02:54:18.274Z,18.70
2018-12-19T02:55:18.204Z,19.20
2018-12-19T02:56:18.136Z,19.70
2018-12-19T02:57:18.063Z,18.50
2018-12-19T02:58:17.996Z,18.70
2018-12-19T02:59:17.932Z,19.70
2018-12-19T03:00:17.867Z,19.80
2018-12-19T03:01:17.789Z,19.30
2018-12-19T03:02:17.723Z,19.50
2018-12-19T03:03:17.662Z,19.40
2018-12-19T03:04:17.587Z,19.70
2018-12-19T03:05:17.526Z,18.60
2018-12-19T03:06:17.458Z,19.30
2018-12-19T03:07:17.392Z,18.50
2018-12-19T03:08:17.311Z,19.10
2018-12-19T03:09:17.242Z,19.10
2018-12-19T03:10:17.177Z,19.00
2018-12-19T03:11:17.109Z,19.10
2018-12-19T03:12:17.036Z,19.40
2018-12-19T03:13:16.973Z,19.10
2018-12-19T03:14:16.902Z,19.40
2018-12-19T03:15:16.838Z,20.00
2018-12-19T03:16:16.759Z,19.00
2018-12-19T03:17:16.694Z,19.10
2018-12-19T03:18:16.624Z,20.10
2018-12-19T03:19:16.556Z,18.50
2018-12-19T03:20:16.484Z,19.40
2018-12-19T03:21:16.505Z,19.70
2018-12-19T03:22:16.349Z,19.80
2018-12-19T03:23:16.280Z,18.80
2018-12-19T03:24:16.219Z,19.70
2018-12-19T03:25:16.147Z,19.40
2018-12-19T03:26:16.082Z,19.70
2018-12-19T03:27:16.009Z,19.60
2018-12-19T03:28:15.940Z,19.50
2018-12-19T03:29:15.870Z,19.30
2018-12-19T03:30:15.807Z,20.10
2018-12-19T03:31:15.732Z,19.40
2018-12-19T03:32:15.736Z,19.40
2018-12-19T03:33:15.597Z,18.80
2018-12-19T03:34:15.523Z,19.30
2018-12-19T03:35:15.453Z,19.30
2018-12-19T03:36:15.389Z,19.00
2018-12-19T03:37:15.318Z,19.80
2018-12-19T03:38:15.258Z,18.70
2018-12-19T03:39:15.178Z,19.10
2018-12-19T03:40:15.115Z,20.10
2018-12-19T03:41:15.053Z,19.10
2018-12-19T03:42:14.979Z,19.80
2018-12-19T03:43:14.915Z,19.70
2018-12-19T03:44:14.840Z,19.20
2018-12-19T03:45:14.773Z,19.40
2018-12-19T03:46:14.707Z,19.90
2018-12-19T03:47:14.636Z,19.20
2018-12-19T03:48:14.570Z,20.10
2018-12-19T03:49:14.507Z,19.20
2018-12-19T03:50:14.425Z,20.50
2018-12-19T03:51:14.359Z,19.80
2018-12-19T03:52:14.289Z,20.50
2018-12-19T03:53:14.223Z,19.30
2018-12-19T03:54:14.148Z,19.90
2018-12-19T03:55:14.085Z,19.50
2018-12-19T03:56:14.015Z,19.80
2018-12-19T03:57:13.948Z,19.30
2018-12-19T03:58:13.874Z,19.00
2018-12-19T03:59:13.810Z,19.90
2018-12-19T04:00:13.744Z,19.20
2018-12-19T04:01:13.677Z,19.30
2018-12-19T04:02:13.598Z,20.10
2018-12-19T04:03:13.538Z,19.40
2018-12-19T04:04:13.465Z,19.40
2018-12-19T04:05:13.398Z,18.10
2018-12-19T04:06:13.334Z,19.60
2018-12-19T04:07:13.261Z,19.90
2018-12-19T04:08:13.208Z,19.10
2018-12-19T04:09:13.124Z,20.30
2018-12-19T04:10:13.055Z,20.40
2018-12-19T04:11:12.991Z,19.30
2018-12-19T04:12:12.920Z,19.90
2018-12-19T04:13:12.847Z,20.10
2018-12-19T04:14:12.782Z,20.20
2018-12-19T04:15:12.711Z,20.00
2018-12-19T04:16:12.648Z,19.70
2018-12-19T04:17:12.571Z,19.40
2018-12-19T04:18:12.506Z,19.30
2018-12-19T04:19:12.438Z,19.30
2018-12-19T04:20:12.372Z,20.20
2018-12-19T04:21:12.293Z,20.90
2018-12-19T04:22:12.231Z,19.40
2018-12-19T04:23:12.163Z,20.10
2018-12-19T04:24:12.103Z,19.60
2018-12-19T04:25:12.030Z,19.50
2018-12-19T04:26:11.972Z,20.40
2018-12-19T04:27:11.900Z,21.60
2018-12-19T04:28:11.821Z,19.90
2018-12-19T04:29:11.750Z,20.60
2018-12-19T04:30:11.685Z,20.10
2018-12-19T04:31:11.623Z,21.40
2018-12-19T04:32:11.543Z,21.20
2018-12-19T04:33:11.475Z,21.70
2018-12-19T04:34:11.408Z,22.60
2018-12-19T04:35:11.339Z,20.30
2018-12-19T04:36:11.272Z,21.40
2018-12-19T04:37:11.200Z,20.80
2018-12-19T04:38:11.134Z,20.80
2018-12-19T04:39:11.064Z,21.50
2018-12-19T04:40:10.995Z,21.10
2018-12-19T04:41:10.929Z,21.60
2018-12-19T04:42:10.858Z,22.00
2018-12-19T04:43:10.790Z,22.80
2018-12-19T04:44:10.726Z,22.20
2018-12-19T04:45:10.653Z,20.60
2018-12-19T04:46:10.592Z,22.90
2018-12-19T04:47:10.514Z,23.20
2018-12-19T04:48:10.445Z,21.80
2018-12-19T04:49:10.377Z,21.70
2018-12-19T04:50:10.316Z,21.90
2018-12-19T04:51:10.239Z,22.80
2018-12-19T04:52:10.172Z,21.60
2018-12-19T04:53:10.101Z,21.00
2018-12-19T04:54:10.048Z,21.80
2018-12-19T04:55:09.961Z,21.60
2018-12-19T04:56:09.897Z,21.90
2018-12-19T04:57:09.828Z,22.70
2018-12-19T04:58:09.763Z,22.60
2018-12-19T04:59:09.690Z,22.20
2018-12-19T05:00:09.623Z,21.50
2018-12-19T05:01:09.553Z,21.30
2018-12-19T05:02:09.486Z,21.40
2018-12-19T05:03:09.423Z,22.20
2018-12-19T05:04:09.346Z,20.90
2018-12-19T05:05:09.299Z,22.30
2018-12-19T05:06:09.211Z,21.80
2018-12-19T05:07:09.143Z,22.30
2018-12-19T05:08:09.078Z,21.90
2018-12-19T05:09:09.012Z,22.00
2018-12-19T05:10:12.243Z,22.10
2018-12-19T05:11:08.869Z,22.90
2018-12-19T05:12:08.803Z,22.50
2018-12-19T05:13:08.738Z,22.20
2018-12-19T05:14:08.660Z,21.90
2018-12-19T05:15:08.592Z,22.90
2018-12-19T05:16:08.524Z,21.80
2018-12-19T05:17:08.460Z,21.70
2018-12-19T05:18:08.384Z,22.60
2018-12-19T05:19:08.314Z,22.20
2018-12-19T05:20:08.252Z,21.80
2018-12-19T05:21:08.192Z,21.90
2018-12-19T05:22:08.107Z,22.40
2018-12-19T05:23:08.044Z,21.60
2018-12-19T05:24:07.980Z,21.10
2018-12-19T05:25:07.906Z,22.50
2018-12-19T05:26:07.841Z,22.60
2018-12-19T05:27:07.777Z,22.80
2018-12-19T05:28:07.723Z,22.20
2018-12-19T05:29:07.631Z,21.30
2018-12-19T05:30:07.562Z,21.40
2018-12-19T05:31:07.496Z,21.20
2018-12-19T05:32:07.426Z,20.70
2018-12-19T05:33:07.357Z,21.10
2018-12-19T05:34:07.290Z,21.10
2018-12-19T05:35:07.220Z,19.70
2018-12-19T05:36:07.149Z,19.90
2018-12-19T05:37:07.079Z,19.90
2018-12-19T05:38:07.022Z,19.00
2018-12-19T05:39:06.946Z,20.60
2018-12-19T05:40:06.880Z,20.00
2018-12-19T05:41:06.810Z,20.30
2018-12-19T05:42:06.739Z,21.90
2018-12-19T05:43:06.685Z,20.70
2018-12-19T05:44:06.602Z,20.40
2018-12-19T05:45:06.538Z,20.40
2018-12-19T05:46:06.470Z,19.40
2018-12-19T05:47:06.404Z,21.10
2018-12-19T05:48:06.328Z,20.30
2018-12-19T05:49:06.260Z,19.00
2018-12-19T05:50:06.190Z,19.20
2018-12-19T05:51:06.130Z,19.20
2018-12-19T05:52:06.052Z,19.40
2018-12-19T05:53:05.984Z,19.40
2018-12-19T05:54:05.917Z,19.70
2018-12-19T05:55:05.844Z,19.20
2018-12-19T05:56:05.778Z,19.60
2018-12-19T05:57:05.711Z,19.40
2018-12-19T05:58:05.643Z,19.90
2018-12-19T05:59:05.573Z,19.00
2018-12-19T06:00:05.502Z,19.90
2018-12-19T06:01:05.437Z,19.20
2018-12-19T06:02:05.368Z,19.40
2018-12-19T06:03:05.298Z,18.70
2018-12-19T06:04:05.234Z,19.20
2018-12-19T06:05:05.172Z,19.30
2018-12-19T06:06:05.100Z,20.10
2018-12-19T06:07:05.023Z,18.60
2018-12-19T06:08:04.956Z,18.50
2018-12-19T06:09:04.884Z,18.40
2018-12-19T06:10:04.823Z,18.60
2018-12-19T06:11:04.747Z,16.90
2018-12-19T06:12:04.681Z,17.80
2018-12-19T06:13:04.609Z,17.20
2018-12-19T06:14:04.548Z,17.20
2018-12-19T06:15:04.469Z,17.70
2018-12-19T06:16:04.406Z,17.30
2018-12-19T06:17:04.335Z,17.70
2018-12-19T06:18:04.271Z,17.50
2018-12-19T06:19:04.201Z,17.20
2018-12-19T06:20:04.132Z,17.00
2018-12-19T06:21:04.063Z,16.70
2018-12-19T06:22:03.994Z,16.20
2018-12-19T06:23:03.932Z,17.60
2018-12-19T06:24:03.866Z,16.70
2018-12-19T06:25:03.787Z,17.00
2018-12-19T06:26:03.719Z,16.60
2018-12-19T06:27:03.650Z,16.60
2018-12-19T06:28:03.582Z,16.00
2018-12-19T06:29:03.523Z,16.10
2018-12-19T06:30:03.444Z,16.30
2018-12-19T06:31:03.374Z,15.70
2018-12-19T06:32:03.310Z,16.20
2018-12-19T06:33:03.235Z,15.50
2018-12-19T06:34:03.185Z,16.20
2018-12-19T06:35:03.101Z,16.20
2018-12-19T06:36:03.074Z,17.00
2018-12-19T06:37:02.965Z,15.60
2018-12-19T06:38:02.892Z,16.10
2018-12-19T06:39:02.825Z,16.50
2018-12-19T06:40:02.757Z,16.90
2018-12-19T06:41:02.702Z,16.30
2018-12-19T06:42:02.626Z,16.90
2018-12-19T06:43:02.563Z,15.50
2018-12-19T06:44:02.488Z,16.20
2018-12-19T06:45:02.413Z,16.10
2018-12-19T06:46:02.347Z,15.70
2018-12-19T06:47:02.284Z,15.60
2018-12-19T06:48:02.217Z,15.60
2018-12-19T06:49:02.138Z,16.00
2018-12-19T06:50:02.070Z,15.40
2018-12-19T06:51:02.006Z,16.00
2018-12-19T06:52:01.936Z,16.00
2018-12-19T06:53:01.860Z,15.30
2018-12-19T06:54:01.798Z,15.70
2018-12-19T06:55:01.730Z,15.30
2018-12-19T06:56:01.671Z,14.80
2018-12-19T06:57:01.599Z,15.00
2018-12-19T06:58:01.522Z,14.80
2018-12-19T06:59:01.456Z,15.30
2018-12-19T07:00:01.386Z,14.40
2018-12-19T07:01:01.325Z,15.00
2018-12-19T07:02:01.248Z,14.80
2018-12-19T07:03:01.193Z,14.30
2018-12-19T07:04:01.111Z,14.70
2018-12-19T07:05:01.042Z,15.00
2018-12-19T07:06:00.978Z,14.60
2018-12-19T07:07:00.914Z,14.80
2018-12-19T07:08:00.853Z,14.80
2018-12-19T07:09:00.766Z,15.60
2018-12-19T07:10:00.698Z,14.50
2018-12-19T07:11:00.635Z,15.40
2018-12-19T07:12:00.557Z,14.60
2018-12-19T07:13:00.492Z,15.60
2018-12-19T07:14:00.425Z,14.40
2018-12-19T07:15:00.355Z,14.40
2018-12-19T07:16:00.282Z,14.80
2018-12-19T07:17:00.221Z,14.00
2018-12-19T07:18:00.151Z,13.80
2018-12-19T07:19:00.087Z,15.00
2018-12-19T07:20:00.021Z,13.80
2018-12-19T07:20:59.946Z,14.20
2018-12-19T07:21:59.896Z,14.60
2018-12-19T07:22:59.808Z,14.40
2018-12-19T07:23:59.738Z,13.10
2018-12-19T07:24:59.673Z,13.70
2018-12-19T07:25:59.604Z,14.50
2018-12-19T07:26:59.531Z,13.50
2018-12-19T07:27:59.465Z,13.60
2018-12-19T07:28:59.395Z,14.10
2018-12-19T07:29:59.331Z,14.10
2018-12-19T07:30:59.257Z,13.80
2018-12-19T07:31:59.190Z,14.20
2018-12-19T07:32:59.129Z,13.70
2018-12-19T07:33:59.054Z,12.80
2018-12-19T07:34:58.981Z,13.70
2018-12-19T07:35:58.916Z,13.70
2018-12-19T07:36:58.852Z,13.60
2018-12-19T07:37:58.777Z,13.20
2018-12-19T07:38:58.715Z,12.90
2018-12-19T07:39:58.658Z,13.20
2018-12-19T07:40:58.589Z,13.50
2018-12-19T07:41:58.505Z,13.10
2018-12-19T07:42:58.442Z,13.30
2018-12-19T07:43:58.370Z,13.10
2018-12-19T07:44:58.310Z,14.80
2018-12-19T07:45:58.230Z,13.30
2018-12-19T07:46:58.162Z,13.80
2018-12-19T07:47:58.094Z,13.60
2018-12-19T07:48:58.028Z,14.30
2018-12-19T07:49:57.955Z,13.10
2018-12-19T07:50:57.890Z,13.80
2018-12-19T07:51:57.822Z,14.40
2018-12-19T07:52:57.759Z,14.10
2018-12-19T07:53:57.690Z,14.20
2018-12-19T07:54:57.820Z,14.20
2018-12-19T07:55:57.574Z,14.00
2018-12-19T07:56:57.571Z,13.80
2018-12-19T07:57:57.416Z,14.10
2018-12-19T07:58:57.341Z,14.30
2018-12-19T07:59:57.280Z,14.00
2018-12-19T08:00:57.204Z,14.80
2018-12-19T08:01:57.140Z,14.20
2018-12-19T08:02:57.069Z,14.10
2018-12-19T08:03:57.008Z,14.90
2018-12-19T08:04:56.929Z,14.00
2018-12-19T08:05:56.874Z,14.50
2018-12-19T08:06:56.802Z,14.50
2018-12-19T08:07:56.731Z,13.30
2018-12-19T08:08:56.655Z,14.00
2018-12-19T08:09:56.593Z,14.80
2018-12-19T08:10:56.536Z,14.10
2018-12-19T08:11:56.455Z,14.60
2018-12-19T08:12:56.386Z,14.30
2018-12-19T08:13:56.330Z,14.30
2018-12-19T08:14:56.259Z,15.70
2018-12-19T08:15:56.179Z,15.40
2018-12-19T08:16:56.124Z,13.60
2018-12-19T08:17:56.060Z,13.70
2018-12-19T08:18:55.998Z,14.00
2018-12-19T08:19:55.903Z,13.10
2018-12-19T08:20:55.839Z,12.80
2018-12-19T08:21:55.770Z,12.70
2018-12-19T08:22:55.716Z,13.00
2018-12-19T08:23:55.630Z,13.60
2018-12-19T08:24:55.565Z,12.90
2018-12-19T08:25:55.499Z,12.80
2018-12-19T08:26:55.432Z,12.50
2018-12-19T08:27:55.368Z,12.60
2018-12-19T08:28:55.300Z,12.10
2018-12-19T08:29:55.240Z,12.80
2018-12-19T08:30:55.155Z,12.00
2018-12-19T08:31:55.090Z,12.30
2018-12-19T08:32:55.025Z,12.30
2018-12-19T08:33:54.956Z,12.20
2018-12-19T08:34:54.881Z,12.20
2018-12-19T08:35:54.818Z,12.80
2018-12-19T08:36:54.748Z,12.70
2018-12-19T08:37:54.689Z,12.40
2018-12-19T08:38:54.630Z,13.30
2018-12-19T08:39:54.544Z,13.10
2018-12-19T08:40:58.757Z,13.10
2018-12-19T08:41:54.408Z,13.20
2018-12-19T08:42:54.338Z,13.80
2018-12-19T08:43:54.275Z,12.90
2018-12-19T08:44:54.211Z,11.50
2018-12-19T08:45:54.133Z,11.90
2018-12-19T08:46:54.066Z,11.70
2018-12-19T08:47:53.996Z,10.50
2018-12-19T08:48:53.938Z,11.10
2018-12-19T08:49:53.858Z,11.10
2018-12-19T08:50:53.800Z,11.20
2018-12-19T08:51:53.730Z,11.80
2018-12-19T08:52:53.662Z,11.40
2018-12-19T08:53:53.605Z,11.30
2018-12-19T08:54:53.530Z,12.20
2018-12-19T08:55:53.467Z,11.70
2018-12-19T08:56:53.384Z,11.70
2018-12-19T08:57:53.317Z,11.70
2018-12-19T08:58:53.249Z,11.70
2018-12-19T08:59:53.186Z,12.60
2018-12-19T09:00:53.111Z,12.70
2018-12-19T09:01:53.049Z,11.40
2018-12-19T09:02:52.979Z,11.10
2018-12-19T09:03:52.913Z,10.90
2018-12-19T09:04:52.838Z,11.00
2018-12-19T09:05:52.777Z,11.30
2018-12-19T09:06:52.715Z,10.70
2018-12-19T09:07:52.640Z,11.30
2018-12-19T09:08:52.592Z,10.40
2018-12-19T09:09:52.505Z,10.80
2018-12-19T09:10:52.453Z,11.20
2018-12-19T09:11:52.390Z,10.80
2018-12-19T09:12:52.296Z,11.10
2018-12-19T09:13:52.229Z,11.20
2018-12-19T09:14:52.162Z,11.60
2018-12-19T09:15:52.091Z,11.10
2018-12-19T09:16:52.029Z,10.70
2018-12-19T09:17:51.958Z,11.20
2018-12-19T09:18:51.891Z,11.40
2018-12-19T09:19:51.830Z,10.70
2018-12-19T09:20:51.766Z,11.00
2018-12-19T09:21:51.698Z,10.60
2018-12-19T09:22:51.620Z,11.60
2018-12-19T09:23:51.575Z,11.30
2018-12-19T09:24:51.485Z,11.50
2018-12-19T09:25:52.922Z,11.70
2018-12-19T09:26:51.347Z,10.40
2018-12-19T09:27:51.279Z,10.80
2018-12-19T09:28:51.213Z,10.70
2018-12-19T09:29:51.151Z,10.70
2018-12-19T09:30:51.084Z,11.60
2018-12-19T09:31:51.021Z,10.80
2018-12-19T09:32:50.943Z,10.70
2018-12-19T09:33:50.875Z,10.00
2018-12-19T09:34:50.818Z,10.30
2018-12-19T09:35:50.738Z,9.60
2018-12-19T09:36:50.673Z,9.80
2018-12-19T09:37:50.602Z,10.20
2018-12-19T09:38:50.538Z,9.70
2018-12-19T09:39:50.467Z,9.60
2018-12-19T09:40:50.401Z,10.00
2018-12-19T09:41:50.340Z,11.00
2018-12-19T09:42:50.278Z,10.00
2018-12-19T09:43:50.206Z,10.60
2018-12-19T09:44:50.135Z,10.60
2018-12-19T09:45:50.069Z,10.80
2018-12-19T09:46:49.997Z,11.00
2018-12-19T09:47:49.941Z,10.40
2018-12-19T09:48:49.856Z,10.30
2018-12-19T09:49:49.795Z,10.40
2018-12-19T09:50:49.726Z,10.30
2018-12-19T09:51:49.658Z,10.70
2018-12-19T09:52:49.596Z,11.00
2018-12-19T09:53:49.530Z,10.40
2018-12-19T09:54:49.466Z,11.10
2018-12-19T09:55:49.389Z,10.00
2018-12-19T09:56:49.322Z,10.10
2018-12-19T09:57:49.253Z,10.90
2018-12-19T09:58:49.187Z,10.20
2018-12-19T09:59:49.117Z,11.10
2018-12-19T10:00:49.055Z,11.30
2018-12-19T10:01:48.982Z,11.30
2018-12-19T10:02:49.438Z,10.60
2018-12-19T10:03:48.854Z,11.30
2018-12-19T10:04:48.788Z,11.60
2018-12-19T10:05:48.720Z,11.20
2018-12-19T10:06:48.660Z,9.70
2018-12-19T10:07:48.584Z,9.50
2018-12-19T10:08:48.533Z,9.20
2018-12-19T10:09:48.447Z,9.80
2018-12-19T10:10:48.373Z,9.40
2018-12-19T10:11:48.312Z,9.30
2018-12-19T10:12:48.243Z,8.80
2018-12-19T10:13:48.175Z,8.90
2018-12-19T10:14:48.107Z,8.20
2018-12-19T10:15:48.043Z,8.80
2018-12-19T10:16:47.977Z,8.80
2018-12-19T10:17:47.905Z,8.70
2018-12-19T10:18:47.840Z,8.90
2018-12-19T10:19:47.774Z,8.90
2018-12-19T10:20:47.705Z,8.80
2018-12-19T10:21:47.647Z,8.40
2018-12-19T10:22:47.576Z,8.20
2018-12-19T10:23:47.512Z,8.10
2018-12-19T10:24:47.435Z,8.50
2018-12-19T10:25:47.370Z,8.70
2018-12-19T10:26:47.302Z,8.60
2018-12-19T10:27:47.238Z,8.70
2018-12-19T10:28:47.164Z,8.70
2018-12-19T10:29:47.100Z,9.30
2018-12-19T10:30:47.032Z,9.10
2018-12-19T10:31:46.970Z,9.10
2018-12-19T10:32:46.901Z,8.70
2018-12-19T10:33:46.835Z,9.00
2018-12-19T10:34:46.766Z,9.30
2018-12-19T10:35:46.695Z,9.20
2018-12-19T10:36:46.630Z,9.10
2018-12-19T10:37:46.563Z,9.10
2018-12-19T10:38:46.499Z,9.00
2018-12-19T10:39:46.429Z,9.30
2018-12-19T10:40:46.363Z,9.10
2018-12-19T10:41:46.313Z,9.20
2018-12-19T10:42:46.226Z,9.20
2018-12-19T10:43:46.165Z,9.70
2018-12-19T10:44:46.093Z,9.90
2018-12-19T10:45:46.032Z,9.70
2018-12-19T10:46:45.960Z,9.50
2018-12-19T10:47:45.892Z,9.70
2018-12-19T10:48:45.847Z,9.10
2018-12-19T10:49:45.759Z,9.60
2018-12-19T10:50:45.693Z,9.20
2018-12-19T10:51:45.629Z,9.40
2018-12-19T10:52:45.563Z,9.60
2018-12-19T10:53:45.487Z,9.20
2018-12-19T10:54:45.423Z,9.70
2018-12-19T10:55:45.383Z,9.30
2018-12-19T10:56:45.287Z,9.50
2018-12-19T10:57:45.230Z,10.00
2018-12-19T10:58:45.154Z,9.20
2018-12-19T10:59:45.094Z,10.00
2018-12-19T11:00:45.021Z,9.80
2018-12-19T11:01:44.954Z,9.90
2018-12-19T11:02:44.885Z,9.80
2018-12-19T11:03:44.822Z,9.80
2018-12-19T11:04:44.745Z,9.60
2018-12-19T11:05:44.685Z,10.20
2018-12-19T11:06:44.616Z,9.60
2018-12-19T11:07:44.548Z,9.70
2018-12-19T11:08:44.484Z,9.70
2018-12-19T11:09:44.418Z,9.70
2018-12-19T11:10:45.170Z,10.30
2018-12-19T11:11:44.281Z,10.00
2018-12-19T11:12:44.240Z,9.50
2018-12-19T11:13:44.146Z,9.60
2018-12-19T11:14:44.080Z,10.10
2018-12-19T11:15:44.020Z,10.00
2018-12-19T11:16:44.822Z,9.80
2018-12-19T11:17:43.907Z,9.80
2018-12-19T11:18:43.809Z,9.80
2018-12-19T11:19:43.749Z,9.70
2018-12-19T11:20:43.676Z,9.30
2018-12-19T11:21:43.619Z,10.50
2018-12-19T11:22:43.539Z,9.50
2018-12-19T11:23:43.474Z,9.40
2018-12-19T11:24:43.407Z,9.80
2018-12-19T11:25:43.341Z,9.60
2018-12-19T11:26:43.278Z,9.70
2018-12-19T11:27:43.211Z,9.20
2018-12-19T11:28:43.145Z,9.20
2018-12-19T11:29:43.070Z,9.50
2018-12-19T11:30:43.005Z,9.50
2018-12-19T11:31:42.938Z,9.10
2018-12-19T11:32:42.873Z,9.80
2018-12-19T11:33:42.812Z,9.90
2018-12-19T11:34:42.737Z,10.40
2018-12-19T11:35:42.688Z,9.60
2018-12-19T11:36:42.600Z,9.40
2018-12-19T11:37:42.538Z,9.70
2018-12-19T11:38:42.471Z,10.10
2018-12-19T11:39:42.414Z,9.70
2018-12-19T11:40:42.333Z,9.80
2018-12-19T11:41:42.268Z,10.40
2018-12-19T11:42:42.206Z,10.60
2018-12-19T11:43:42.140Z,10.60
2018-12-19T11:44:42.068Z,9.80
2018-12-19T11:45:42.007Z,10.70
2018-12-19T11:46:41.937Z,11.70
2018-12-19T11:47:41.864Z,10.90
2018-12-19T11:48:41.806Z,11.00
2018-12-19T11:49:41.732Z,11.20
2018-12-19T11:50:41.665Z,11.30
2018-12-19T11:51:41.591Z,10.50
2018-12-19T11:52:41.538Z,11.50
2018-12-19T11:53:41.474Z,10.80
2018-12-19T11:54:41.396Z,10.40
2018-12-19T11:55:41.333Z,11.00
2018-12-19T11:56:41.263Z,10.00
2018-12-19T11:57:41.198Z,10.60
2018-12-19T11:58:41.124Z,10.30
2018-12-19T11:59:41.063Z,10.10
2018-12-19T12:00:41.019Z,10.50
2018-12-19T12:01:41.573Z,10.70
2018-12-19T12:02:40.861Z,10.60
2018-12-19T12:03:40.797Z,10.10
2018-12-19T12:04:40.733Z,10.00
2018-12-19T12:05:40.659Z,10.30
2018-12-19T12:06:40.595Z,10.00
2018-12-19T12:07:40.529Z,10.80
2018-12-19T12:08:40.471Z,10.00
2018-12-19T12:09:40.400Z,10.50
2018-12-19T12:10:40.362Z,10.30
2018-12-19T12:11:45.666Z,10.30
2018-12-19T12:12:40.191Z,10.70
2018-12-19T12:13:40.129Z,10.20
2018-12-19T12:14:40.061Z,10.30
2018-12-19T12:15:40.001Z,10.80
2018-12-19T12:16:39.932Z,10.50
2018-12-19T12:17:39.869Z,10.70
2018-12-19T12:18:39.802Z,10.90
2018-12-19T12:19:39.730Z,11.30
2018-12-19T12:20:39.661Z,10.90
2018-12-19T12:21:39.594Z,10.70
2018-12-19T12:22:41.087Z,10.50
2018-12-19T12:23:39.467Z,11.40
2018-12-19T12:24:39.405Z,10.80
2018-12-19T12:25:39.336Z,10.70
2018-12-19T12:26:39.265Z,11.00
2018-12-19T12:27:39.194Z,10.70
2018-12-19T12:28:39.130Z,11.70
2018-12-19T12:29:39.068Z,10.70
2018-12-19T12:30:38.998Z,11.50
2018-12-19T12:31:38.938Z,11.10
2018-12-19T12:32:38.881Z,10.80
2018-12-19T12:33:38.828Z,10.90
2018-12-19T12:34:38.766Z,10.20
2018-12-19T12:35:38.666Z,11.00
2018-12-19T12:36:38.604Z,11.00
2018-12-19T12:37:38.527Z,11.20
2018-12-19T12:38:38.501Z,10.50
2018-12-19T12:39:38.405Z,11.20
2018-12-19T12:40:38.333Z,10.70
2018-12-19T12:41:38.269Z,11.10
2018-12-19T12:42:38.208Z,11.10
2018-12-19T12:43:38.133Z,10.40
2018-12-19T12:44:38.063Z,10.20
2018-12-19T12:45:38.003Z,12.10
2018-12-19T12:46:37.940Z,11.60
2018-12-19T12:47:37.870Z,11.40
2018-12-19T12:48:37.803Z,11.10
2018-12-19T12:49:37.735Z,11.20
2018-12-19T12:50:37.676Z,11.60
2018-12-19T12:51:37.602Z,11.90
2018-12-19T12:52:37.534Z,11.30
2018-12-19T12:53:37.493Z,11.70
2018-12-19T12:54:37.404Z,11.00